createdAt,value
2018-11-25T00:01:17.381Z,7.30
2018-11-25T00:03:44.548Z,7.30
2018-11-25T00:06:11.747Z,7.30
2018-11-25T00:08:38.909Z,7.30
2018-11-25T00:11:06.138Z,7.30
2018-11-25T00:13:33.301Z,7.30
2018-11-25T00:16:00.486Z,7.30
2018-11-25T00:18:27.675Z,7.30
2018-11-25T00:20:54.904Z,7.40
2018-11-25T00:23:22.073Z,7.40
2018-11-25T00:25:49.239Z,7.40
2018-11-25T00:28:16.426Z,7.30
2018-11-25T00:30:43.666Z,7.20
2018-11-25T00:33:10.796Z,7.10
2018-11-25T00:35:37.977Z,7.00
2018-11-25T00:38:05.163Z,6.90
2018-11-25T00:40:32.418Z,6.90
2018-11-25T00:42:59.602Z,6.70
2018-11-25T00:45:26.772Z,6.60
2018-11-25T00:47:53.947Z,6.50
2018-11-25T00:50:21.125Z,6.50
2018-11-25T00:52:48.322Z,6.40
2018-11-25T00:55:16.288Z,6.40
2018-11-25T00:57:43.493Z,6.50
2018-11-25T01:00:15.569Z,6.60
2018-11-25T01:02:42.804Z,6.60
2018-11-25T01:05:10.298Z,6.50
2018-11-25T01:07:37.663Z,6.50
2018-11-25T01:10:06.785Z,6.50
2018-11-25T01:12:33.969Z,6.50
2018-11-25T01:15:01.235Z,6.50
2018-11-25T01:17:28.411Z,6.50
2018-11-25T01:19:55.577Z,6.40
2018-11-25T01:22:22.801Z,6.50
2018-11-25T01:24:50.023Z,6.50
2018-11-25T01:27:17.209Z,6.50
2018-11-25T01:29:44.372Z,6.50
2018-11-25T01:32:11.591Z,6.50
2018-11-25T01:34:38.769Z,6.70
2018-11-25T01:37:06.037Z,6.80
2018-11-25T01:39:33.368Z,6.80
2018-11-25T01:42:00.532Z,6.80
2018-11-25T01:44:27.712Z,6.90
2018-11-25T01:46:54.890Z,6.80
2018-11-25T01:49:22.628Z,6.80
2018-11-25T01:51:49.284Z,6.90
2018-11-25T01:54:16.502Z,6.90
2018-11-25T01:56:43.713Z,7.00
2018-11-25T01:59:10.898Z,7.10
2018-11-25T02:01:38.073Z,7.10
2018-11-25T02:04:05.273Z,6.90
2018-11-25T02:06:32.453Z,7.00
2018-11-25T02:08:59.643Z,7.10
2018-11-25T02:11:26.833Z,7.10
2018-11-25T02:13:54.041Z,7.10
2018-11-25T02:16:21.213Z,7.10
2018-11-25T02:18:48.401Z,7.20
2018-11-25T02:21:15.600Z,7.10
2018-11-25T02:23:42.801Z,7.10
2018-11-25T02:26:09.980Z,7.10
2018-11-25T02:28:37.170Z,7.10
2018-11-25T02:31:04.399Z,7.20
2018-11-25T02:33:31.581Z,7.30
2018-11-25T02:35:58.752Z,7.20
2018-11-25T02:38:25.943Z,7.00
2018-11-25T02:40:53.108Z,7.00
2018-11-25T02:43:20.294Z,7.00
2018-11-25T02:45:47.526Z,7.10
2018-11-25T02:48:14.714Z,7.00
2018-11-25T02:50:41.899Z,6.90
2018-11-25T02:53:09.084Z,7.00
2018-11-25T02:55:36.293Z,7.00
2018-11-25T02:58:03.733Z,7.10
2018-11-25T03:00:30.928Z,7.10
2018-11-25T03:02:58.122Z,7.00
2018-11-25T03:05:25.328Z,7.10
2018-11-25T03:07:52.509Z,7.10
2018-11-25T03:10:19.717Z,7.10
2018-11-25T03:12:46.912Z,7.10
2018-11-25T03:15:14.944Z,7.10
2018-11-25T03:17:42.112Z,7.20
2018-11-25T03:20:12.424Z,7.10
2018-11-25T03:22:39.633Z,7.00
2018-11-25T03:25:14.995Z,7.10
2018-11-25T03:27:42.181Z,7.10
2018-11-25T03:30:14.531Z,7.00
2018-11-25T03:32:42.064Z,6.90
2018-11-25T03:35:10.364Z,6.90
2018-11-25T03:37:37.525Z,6.80
2018-11-25T03:40:07.640Z,6.90
2018-11-25T03:42:34.811Z,6.90
2018-11-25T03:45:02.016Z,6.80
2018-11-25T03:47:29.180Z,6.80
2018-11-25T03:49:56.369Z,6.70
2018-11-25T03:52:23.558Z,6.80
2018-11-25T03:54:50.746Z,6.80
2018-11-25T03:57:17.912Z,6.80
2018-11-25T03:59:45.100Z,6.70
2018-11-25T04:02:12.257Z,6.60
2018-11-25T04:04:39.467Z,6.70
2018-11-25T04:07:06.633Z,6.80
2018-11-25T04:09:33.817Z,6.80
2018-11-25T04:12:00.983Z,6.70
2018-11-25T04:14:28.291Z,6.60
2018-11-25T04:16:55.488Z,6.60
2018-11-25T04:19:22.689Z,6.50
2018-11-25T04:21:49.866Z,6.50
2018-11-25T04:24:17.053Z,6.50
2018-11-25T04:26:44.241Z,6.50
2018-11-25T04:29:11.426Z,6.50
2018-11-25T04:31:38.669Z,6.50
2018-11-25T04:34:05.844Z,6.50
2018-11-25T04:36:33.055Z,6.60
2018-11-25T04:39:00.224Z,6.50
2018-11-25T04:41:27.404Z,6.40
2018-11-25T04:43:54.577Z,6.40
2018-11-25T04:46:21.749Z,6.50
2018-11-25T04:48:48.943Z,6.50
2018-11-25T04:51:16.115Z,6.40
2018-11-25T04:53:43.287Z,6.30
2018-11-25T04:56:10.481Z,6.40
2018-11-25T04:58:37.636Z,6.40
2018-11-25T05:01:04.834Z,6.40
2018-11-25T05:03:32.007Z,6.30
2018-11-25T05:05:59.180Z,6.30
2018-11-25T05:08:26.360Z,6.30
2018-11-25T05:10:53.564Z,6.30
2018-11-25T05:13:20.775Z,6.40
2018-11-25T05:15:47.962Z,6.40
2018-11-25T05:18:15.129Z,6.40
2018-11-25T05:20:42.316Z,6.20
2018-11-25T05:23:09.489Z,6.20
2018-11-25T05:25:36.667Z,6.10
2018-11-25T05:28:04.177Z,6.10
2018-11-25T05:30:31.370Z,6.00
2018-11-25T05:32:58.545Z,5.90
2018-11-25T05:35:25.725Z,6.00
2018-11-25T05:37:52.904Z,6.00
2018-11-25T05:40:20.099Z,6.00
2018-11-25T05:42:47.291Z,6.00
2018-11-25T05:45:15.624Z,6.10
2018-11-25T05:47:42.769Z,6.10
2018-11-25T05:50:11.299Z,6.10
2018-11-25T05:52:38.628Z,6.10
2018-11-25T05:55:06.941Z,6.20
2018-11-25T05:57:34.377Z,6.20
2018-11-25T06:00:01.595Z,6.30
2018-11-25T06:02:28.777Z,6.30
2018-11-25T06:04:55.959Z,6.30
2018-11-25T06:07:23.133Z,6.20
2018-11-25T06:09:50.317Z,6.10
2018-11-25T06:12:17.483Z,5.90
2018-11-25T06:14:44.672Z,5.80
2018-11-25T06:17:11.853Z,5.70
2018-11-25T06:19:39.027Z,5.80
2018-11-25T06:22:06.208Z,5.80
2018-11-25T06:24:33.393Z,5.90
2018-11-25T06:27:00.572Z,5.90
2018-11-25T06:29:27.743Z,5.70
2018-11-25T06:31:54.919Z,5.80
2018-11-25T06:34:22.113Z,5.70
2018-11-25T06:36:49.327Z,5.60
2018-11-25T06:39:16.456Z,5.70
2018-11-25T06:41:43.637Z,5.60
2018-11-25T06:44:10.791Z,5.60
2018-11-25T06:46:37.968Z,5.70
2018-11-25T06:49:05.337Z,5.60
2018-11-25T06:51:32.512Z,5.70
2018-11-25T06:53:59.679Z,5.70
2018-11-25T06:56:27.479Z,5.80
2018-11-25T06:58:54.049Z,5.80
2018-11-25T07:01:21.237Z,5.90
2018-11-25T07:03:48.460Z,6.00
2018-11-25T07:06:15.656Z,6.20
2018-11-25T07:08:42.820Z,6.20
2018-11-25T07:11:10.017Z,6.20
2018-11-25T07:13:37.369Z,6.20
2018-11-25T07:16:06.502Z,6.10
2018-11-25T07:18:32.577Z,6.20
2018-11-25T07:20:59.782Z,6.30
2018-11-25T07:23:27.061Z,6.40
2018-11-25T07:25:54.488Z,6.30
2018-11-25T07:28:21.665Z,6.30
2018-11-25T07:30:48.848Z,6.30
2018-11-25T07:33:16.012Z,6.30
2018-11-25T07:35:43.233Z,6.30
2018-11-25T07:38:10.393Z,6.40
2018-11-25T07:40:37.582Z,6.40
2018-11-25T07:43:04.893Z,6.40
2018-11-25T07:45:32.205Z,6.30
2018-11-25T07:47:59.481Z,6.30
2018-11-25T07:50:26.660Z,6.30
2018-11-25T07:52:53.901Z,6.30
2018-11-25T07:55:23.191Z,6.30
2018-11-25T07:57:51.300Z,6.40
2018-11-25T08:00:19.516Z,6.40
2018-11-25T08:02:46.792Z,6.40
2018-11-25T08:05:15.342Z,6.50
2018-11-25T08:07:42.521Z,6.60
2018-11-25T08:10:12.612Z,6.50
2018-11-25T08:12:39.864Z,6.60
2018-11-25T08:15:11.928Z,6.70
2018-11-25T08:17:39.305Z,6.60
2018-11-25T08:20:08.847Z,6.60
2018-11-25T08:22:36.054Z,6.60
2018-11-25T08:25:03.727Z,6.60
2018-11-25T08:27:30.973Z,6.70
2018-11-25T08:29:58.347Z,6.60
2018-11-25T08:32:25.525Z,6.60
2018-11-25T08:34:52.692Z,6.70
2018-11-25T08:37:19.896Z,6.70
2018-11-25T08:39:47.112Z,6.60
2018-11-25T08:42:14.336Z,6.70
2018-11-25T08:44:41.519Z,6.80
2018-11-25T08:48:33.386Z,6.80
2018-11-25T08:51:00.570Z,6.90
2018-11-25T08:53:27.774Z,6.90
2018-11-25T08:55:55.043Z,7.00
2018-11-25T08:58:22.213Z,7.10
2018-11-25T09:00:49.440Z,7.10
2018-11-25T09:03:16.703Z,7.10
2018-11-25T09:05:43.956Z,7.10
2018-11-25T09:08:11.140Z,7.00
2018-11-25T09:10:38.321Z,7.00
2018-11-25T09:13:05.830Z,7.00
2018-11-25T09:15:33.007Z,7.00
2018-11-25T09:18:00.221Z,7.10
2018-11-25T09:20:27.474Z,7.20
2018-11-25T09:22:54.660Z,7.20
2018-11-25T09:25:24.094Z,7.10
2018-11-25T09:27:51.513Z,7.10
2018-11-25T09:30:21.781Z,7.10
2018-11-25T09:32:48.988Z,7.00
2018-11-25T09:35:16.666Z,7.00
2018-11-25T09:37:43.869Z,7.10
2018-11-25T09:40:14.127Z,7.00
2018-11-25T09:42:41.535Z,7.20
2018-11-25T09:45:12.732Z,7.20
2018-11-25T09:50:03.379Z,7.30
2018-11-25T09:52:30.661Z,7.30
2018-11-25T09:54:57.901Z,7.40
2018-11-25T09:57:25.082Z,7.40
2018-11-25T09:59:52.303Z,7.40
2018-11-25T10:02:19.509Z,7.50
2018-11-25T10:04:46.679Z,7.60
2018-11-25T10:07:14.021Z,7.60
2018-11-25T10:09:41.484Z,7.60
2018-11-25T10:12:08.677Z,7.70
2018-11-25T10:14:35.908Z,7.60
2018-11-25T10:17:03.142Z,7.50
2018-11-25T10:19:30.308Z,7.50
2018-11-25T10:21:57.501Z,7.50
2018-11-25T10:24:24.729Z,7.60
2018-11-25T10:26:51.921Z,7.60
2018-11-25T10:29:19.093Z,7.50
2018-11-25T10:31:46.277Z,7.50
2018-11-25T10:34:13.448Z,7.60
2018-11-25T10:36:41.246Z,7.60
2018-11-25T10:39:08.485Z,7.60
2018-11-25T10:41:35.829Z,7.60
2018-11-25T10:44:03.085Z,7.60
2018-11-25T10:46:30.321Z,7.60
2018-11-25T10:48:57.514Z,7.60
2018-11-25T10:51:24.709Z,7.50
2018-11-25T10:53:51.968Z,7.60
2018-11-25T10:56:19.156Z,7.60
2018-11-25T10:58:46.384Z,7.70
2018-11-25T11:01:19.272Z,7.70
2018-11-25T11:03:52.214Z,7.80
2018-11-25T11:06:25.244Z,7.80
2018-11-25T11:08:52.492Z,7.90
2018-11-25T11:11:19.777Z,7.90
2018-11-25T11:13:46.953Z,8.00
2018-11-25T11:16:14.144Z,7.90
2018-11-25T11:18:41.337Z,8.00
2018-11-25T11:21:08.553Z,8.00
2018-11-25T11:23:35.798Z,8.10
2018-11-25T11:26:07.096Z,8.00
2018-11-25T11:28:30.300Z,8.10
2018-11-25T11:30:57.478Z,8.10
2018-11-25T11:33:24.692Z,8.00
2018-11-25T11:35:51.976Z,8.00
2018-11-25T11:38:19.148Z,8.10
2018-11-25T11:40:46.321Z,8.20
2018-11-25T11:43:13.576Z,8.20
2018-11-25T11:45:40.944Z,8.20
2018-11-25T11:48:08.140Z,8.20
2018-11-25T11:50:35.315Z,8.20
2018-11-25T11:53:02.597Z,8.20
2018-11-25T11:56:39.934Z,8.20
2018-11-25T11:59:00.448Z,8.20
2018-11-25T12:01:27.655Z,8.30
2018-11-25T12:03:54.916Z,8.30
2018-11-25T12:06:22.116Z,8.20
2018-11-25T12:08:49.299Z,8.30
2018-11-25T12:11:16.576Z,8.40
2018-11-25T12:13:43.837Z,8.40
2018-11-25T12:16:11.094Z,8.50
2018-11-25T12:18:38.370Z,8.50
2018-11-25T12:21:05.888Z,8.50
2018-11-25T12:23:33.147Z,8.50
2018-11-25T12:26:00.316Z,8.50
2018-11-25T12:28:27.507Z,8.40
2018-11-25T12:30:54.687Z,8.40
2018-11-25T12:33:21.889Z,8.40
2018-11-25T12:35:49.104Z,8.50
2018-11-25T12:38:16.295Z,8.40
2018-11-25T12:40:43.509Z,8.40
2018-11-25T12:43:10.774Z,8.40
2018-11-25T12:45:37.964Z,8.30
2018-11-25T12:48:05.528Z,8.30
2018-11-25T12:50:32.707Z,8.30
2018-11-25T12:52:59.984Z,8.30
2018-11-25T12:55:27.228Z,8.30
2018-11-25T12:57:55.241Z,8.30
2018-11-25T13:00:32.629Z,8.40
2018-11-25T13:02:59.800Z,8.50
2018-11-25T13:05:27.108Z,8.60
2018-11-25T13:07:54.299Z,8.50
2018-11-25T13:10:21.504Z,8.50
2018-11-25T13:12:48.768Z,8.40
2018-11-25T13:15:15.959Z,8.40
2018-11-25T13:17:43.133Z,8.30
2018-11-25T13:20:12.545Z,8.40
2018-11-25T13:22:40.059Z,8.50
2018-11-25T13:25:08.664Z,8.70
2018-11-25T13:27:35.856Z,8.70
2018-11-25T13:30:04.289Z,8.60
2018-11-25T13:32:31.464Z,8.70
2018-11-25T13:34:58.637Z,8.60
2018-11-25T13:37:25.884Z,8.70
2018-11-25T13:39:53.102Z,8.70
2018-11-25T13:42:20.298Z,8.60
2018-11-25T13:44:46.572Z,8.60
2018-11-25T13:47:13.881Z,8.70
2018-11-25T13:49:41.156Z,8.60
2018-11-25T13:52:08.634Z,8.60
2018-11-25T13:54:36.740Z,8.70
2018-11-25T13:57:04.446Z,8.80
2018-11-25T13:59:31.637Z,8.80
2018-11-25T14:01:58.916Z,8.80
2018-11-25T14:04:26.107Z,8.80
2018-11-25T14:06:53.327Z,8.70
2018-11-25T14:09:21.036Z,8.70
2018-11-25T14:11:48.333Z,8.70
2018-11-25T14:14:15.724Z,8.70
2018-11-25T14:16:43.141Z,8.70
2018-11-25T14:19:10.328Z,8.60
2018-11-25T14:21:37.514Z,8.50
2018-11-25T14:24:04.739Z,8.50
2018-11-25T14:26:35.479Z,8.60
2018-11-25T14:29:02.827Z,8.60
2018-11-25T14:31:30.080Z,8.50
2018-11-25T14:33:57.287Z,8.50
2018-11-25T14:36:24.493Z,8.50
2018-11-25T14:38:51.745Z,8.40
2018-11-25T14:41:18.944Z,8.40
2018-11-25T14:43:46.215Z,8.40
2018-11-25T14:46:13.409Z,8.30
2018-11-25T14:48:40.603Z,8.40
2018-11-25T14:51:07.794Z,8.40
2018-11-25T14:53:34.983Z,8.30
2018-11-25T14:56:02.389Z,8.30
2018-11-25T14:58:29.675Z,8.40
2018-11-25T15:00:56.870Z,8.30
2018-11-25T15:03:24.084Z,8.30
2018-11-25T15:05:51.293Z,8.20
2018-11-25T15:08:20.409Z,8.20
2018-11-25T15:10:47.617Z,8.20
2018-11-25T15:13:14.798Z,8.10
2018-11-25T15:15:42.131Z,8.00
2018-11-25T15:18:09.421Z,8.00
2018-11-25T15:20:36.658Z,8.00
2018-11-25T15:23:06.993Z,7.90
2018-11-25T15:25:36.060Z,7.90
2018-11-25T15:28:03.368Z,7.90
2018-11-25T15:30:30.582Z,7.90
2018-11-25T15:32:57.817Z,7.80
2018-11-25T15:35:25.009Z,7.90
2018-11-25T15:37:52.984Z,7.90
2018-11-25T15:40:23.677Z,7.80
2018-11-25T15:42:51.015Z,7.90
2018-11-25T15:45:18.297Z,7.80
2018-11-25T15:47:48.137Z,7.80
2018-11-25T15:50:17.956Z,7.80
2018-11-25T15:52:45.181Z,7.70
2018-11-25T15:55:13.325Z,7.70
2018-11-25T15:57:40.618Z,7.70
2018-11-25T16:00:14.597Z,7.70
2018-11-25T16:02:41.816Z,7.70
2018-11-25T16:05:10.680Z,7.70
2018-11-25T16:07:37.890Z,7.70
2018-11-25T16:10:08.815Z,7.70
2018-11-25T16:12:36.005Z,7.70
2018-11-25T16:15:03.809Z,7.70
2018-11-25T16:17:30.984Z,7.70
2018-11-25T16:19:58.240Z,7.80
2018-11-25T16:22:25.440Z,7.70
2018-11-25T16:24:52.660Z,7.80
2018-11-25T16:27:20.385Z,7.70
2018-11-25T16:29:47.601Z,7.70
2018-11-25T16:32:14.800Z,7.70
2018-11-25T16:34:42.015Z,7.70
2018-11-25T16:37:09.205Z,7.70
2018-11-25T16:39:36.461Z,7.70
2018-11-25T16:42:03.717Z,7.60
2018-11-25T16:44:30.887Z,7.70
2018-11-25T16:46:58.080Z,7.70
2018-11-25T16:49:33.286Z,7.60
2018-11-25T16:51:59.223Z,7.60
2018-11-25T16:54:26.390Z,7.60
2018-11-25T16:56:53.612Z,7.60
2018-11-25T16:59:26.596Z,7.60
2018-11-25T17:04:50.244Z,7.50
2018-11-25T17:07:35.098Z,7.60
2018-11-25T17:10:16.777Z,7.50
2018-11-25T17:12:51.997Z,7.50
2018-11-25T17:15:21.498Z,7.50
2018-11-25T17:17:48.696Z,7.50
2018-11-25T17:20:15.890Z,7.40
2018-11-25T17:25:42.240Z,7.50
2018-11-25T17:28:14.399Z,7.50
2018-11-25T17:30:41.588Z,7.50
2018-11-25T17:33:08.858Z,7.40
2018-11-25T17:38:36.166Z,7.50
2018-11-25T17:41:03.392Z,7.50
2018-11-25T17:43:37.976Z,7.50
2018-11-25T17:49:02.680Z,7.50
2018-11-25T17:51:53.135Z,7.40
2018-11-25T17:54:20.317Z,7.50
2018-11-25T17:57:11.209Z,7.40
2018-11-25T17:59:38.378Z,7.30
2018-11-25T18:02:05.918Z,7.40
2018-11-25T18:04:32.860Z,7.30
2018-11-25T18:07:00.121Z,7.30
2018-11-25T18:09:27.309Z,7.40
2018-11-25T18:12:01.820Z,7.30
2018-11-25T18:14:29.015Z,7.40
2018-11-25T18:16:58.266Z,7.40
2018-11-25T18:19:26.518Z,7.30
2018-11-25T18:21:58.870Z,7.40
2018-11-25T18:24:26.274Z,7.40
2018-11-25T18:26:53.487Z,7.70
2018-11-25T18:29:20.672Z,7.90
2018-11-25T18:35:44.227Z,8.00
2018-11-25T18:38:11.417Z,8.10
2018-11-25T18:40:38.645Z,8.10
2018-11-25T18:43:10.417Z,8.10
2018-11-25T18:45:37.615Z,8.10
2018-11-25T18:48:06.204Z,8.10
2018-11-25T18:50:51.971Z,8.10
2018-11-25T18:56:15.816Z,8.20
2018-11-25T19:01:51.277Z,8.20
2018-11-25T19:04:18.497Z,8.20
2018-11-25T19:06:45.714Z,8.10
2018-11-25T19:09:12.925Z,8.00
2018-11-25T19:11:40.114Z,7.90
2018-11-25T19:14:07.324Z,7.80
2018-11-25T19:16:34.652Z,7.80
2018-11-25T19:24:48.167Z,7.40
2018-11-25T19:30:15.744Z,7.30
2018-11-25T19:33:02.661Z,7.30
2018-11-25T19:35:29.901Z,7.20
2018-11-25T19:37:57.081Z,7.10
2018-11-25T19:40:27.932Z,7.00
2018-11-25T19:43:03.226Z,7.00
2018-11-25T19:48:32.192Z,6.90
2018-11-25T19:50:59.382Z,6.90
2018-11-25T19:53:51.557Z,6.90
2018-11-25T19:56:28.965Z,6.90
2018-11-25T19:58:58.309Z,6.90
2018-11-25T20:01:40.525Z,6.90
2018-11-25T20:04:21.192Z,6.80
2018-11-25T20:06:49.914Z,6.80
2018-11-25T20:09:17.143Z,6.80
2018-11-25T20:11:44.341Z,6.80
2018-11-25T20:14:11.538Z,6.80
2018-11-25T20:16:44.569Z,6.80
2018-11-25T20:19:11.760Z,6.80
2018-11-25T20:21:55.898Z,6.80
2018-11-25T20:24:35.360Z,6.80
2018-11-25T20:30:03.672Z,6.70
2018-11-25T20:32:36.608Z,6.70
2018-11-25T20:35:04.405Z,6.70
2018-11-25T20:37:31.601Z,6.80
2018-11-25T20:39:58.789Z,6.70
2018-11-25T20:42:25.959Z,6.60
2018-11-25T20:44:53.140Z,6.60
2018-11-25T20:47:20.338Z,6.60
2018-11-25T20:49:47.559Z,6.60
2018-11-25T20:52:20.585Z,6.70
2018-11-25T20:54:47.763Z,6.60
2018-11-25T20:57:33.858Z,6.60
2018-11-25T21:00:15.065Z,6.60
2018-11-25T21:02:41.198Z,6.60
2018-11-25T21:05:13.012Z,6.60
2018-11-25T21:07:40.217Z,6.50
2018-11-25T21:10:09.143Z,6.50
2018-11-25T21:12:37.349Z,6.50
2018-11-25T21:15:05.941Z,6.50
2018-11-25T21:17:33.117Z,6.50
2018-11-25T21:20:00.318Z,6.30
2018-11-25T21:22:27.500Z,6.30
2018-11-25T21:24:56.712Z,6.30
2018-11-25T21:27:23.897Z,6.30
2018-11-25T21:29:51.100Z,6.30
2018-11-25T21:32:18.275Z,6.10
2018-11-25T21:34:45.456Z,6.00
2018-11-25T21:37:12.753Z,6.00
2018-11-25T21:39:39.957Z,6.00
2018-11-25T21:42:07.588Z,6.10
2018-11-25T21:44:34.770Z,6.20
2018-11-25T21:47:01.941Z,6.20
2018-11-25T21:49:29.120Z,6.10
2018-11-25T21:51:56.410Z,6.10
2018-11-25T21:54:23.664Z,6.10
2018-11-25T21:56:50.879Z,6.00
2018-11-25T21:59:18.042Z,5.90
2018-11-25T22:05:24.904Z,5.90
2018-11-25T22:07:50.335Z,6.10
2018-11-25T22:10:19.417Z,6.10
2018-11-25T22:12:47.080Z,6.10
2018-11-25T22:15:20.474Z,6.10
2018-11-25T22:17:47.700Z,6.20
2018-11-25T22:20:15.592Z,6.10
2018-11-25T22:22:42.803Z,6.20
2018-11-25T22:25:11.083Z,6.20
2018-11-25T22:27:38.464Z,6.20
2018-11-25T22:30:08.400Z,6.20
2018-11-25T22:32:35.660Z,6.10
2018-11-25T22:35:02.925Z,6.10
2018-11-25T22:37:30.133Z,6.30
2018-11-25T22:39:57.403Z,6.20
2018-11-25T22:42:24.667Z,6.20
2018-11-25T22:44:51.864Z,6.10
2018-11-25T22:47:19.073Z,6.10
2018-11-25T22:49:46.246Z,6.10
2018-11-25T22:52:13.481Z,6.10
2018-11-25T22:54:40.688Z,6.10
2018-11-25T22:57:07.886Z,6.10
2018-11-25T22:59:35.049Z,6.20
2018-11-25T23:02:02.317Z,6.20
2018-11-25T23:04:41.260Z,6.40
2018-11-25T23:07:08.509Z,6.40
2018-11-25T23:09:35.697Z,6.40
2018-11-25T23:12:02.964Z,6.50
2018-11-25T23:14:30.156Z,6.50
2018-11-25T23:16:57.395Z,6.50
2018-11-25T23:19:24.560Z,6.40
2018-11-25T23:21:51.786Z,6.50
2018-11-25T23:24:18.963Z,6.60
2018-11-25T23:26:46.155Z,6.60
2018-11-25T23:29:13.424Z,6.60
2018-11-25T23:31:40.600Z,6.60
2018-11-25T23:34:07.809Z,6.50
2018-11-25T23:36:35.368Z,6.50
2018-11-25T23:39:03.565Z,6.50
2018-11-25T23:41:30.756Z,6.60
2018-11-25T23:43:57.924Z,6.60
2018-11-25T23:46:25.105Z,6.60
2018-11-25T23:48:52.273Z,6.60
2018-11-25T23:51:19.513Z,6.70
2018-11-25T23:53:46.692Z,6.70
2018-11-25T23:56:13.889Z,6.70
2018-11-25T23:58:41.117Z,6.70
